Time;durP1;ratioP1;P1;durP2;ratioP2;P2;SDS_P1;SDS_P2;PMS_P1;PMS_P2;Temp;Humidity;BMP_temperature;BMP_pressure;BME280_temperature;BME280_humidity;BME280_pressure;Samples;Min_cycle;Max_cycle;Signal;HPM_P1;HPM_P2
2021/10/13 00:00:53;;;;;;;6.53;3.43;;;5.50;90.60;;;;;;5054422;28;20251;-91
2021/10/13 00:03:19;;;;;;;5.00;3.47;;;5.60;90.30;;;;;;5036654;28;20549;-87
2021/10/13 00:05:45;;;;;;;6.47;3.67;;;5.50;90.40;;;;;;5036554;28;20188;-89
2021/10/13 00:08:11;;;;;;;4.07;3.67;;;5.50;90.40;;;;;;5036581;28;20189;-89
2021/10/13 00:10:37;;;;;;;5.33;3.10;;;5.50;90.30;;;;;;5036757;28;20179;-90
2021/10/13 00:13:03;;;;;;;6.37;3.63;;;5.50;89.90;;;;;;5036361;28;20183;-89
2021/10/13 00:15:29;;;;;;;4.03;2.67;;;5.60;89.30;;;;;;5036165;28;20253;-89
2021/10/13 00:17:55;;;;;;;3.63;3.00;;;5.50;88.90;;;;;;5054116;28;20168;-88
2021/10/13 00:20:20;;;;;;;3.27;2.97;;;5.50;88.70;;;;;;5036396;28;20198;-89
2021/10/13 00:22:46;;;;;;;4.07;2.60;;;5.40;88.50;;;;;;5036089;28;20175;-89
2021/10/13 00:25:12;;;;;;;6.20;3.00;;;5.40;88.30;;;;;;5036062;28;20230;-90
2021/10/13 00:27:37;;;;;;;4.33;2.23;;;5.30;87.80;;;;;;5036915;28;20178;-89
2021/10/13 00:30:04;;;;;;;4.37;2.77;;;5.00;87.00;;;;;;5036255;28;20211;-89
2021/10/13 00:32:30;;;;;;;3.20;2.40;;;4.80;87.50;;;;;;5036171;28;20558;-89
2021/10/13 00:34:56;;;;;;;3.43;2.60;;;4.50;87.80;;;;;;5053538;28;20199;-89
2021/10/13 00:37:22;;;;;;;3.17;2.73;;;4.40;88.00;;;;;;5036146;28;20186;-89
2021/10/13 00:39:48;;;;;;;4.83;2.73;;;4.40;88.10;;;;;;5035994;28;20170;-88
2021/10/13 00:42:14;;;;;;;3.10;2.80;;;4.40;88.10;;;;;;5054037;28;20173;-89
2021/10/13 00:44:41;;;;;;;3.23;2.77;;;4.40;87.80;;;;;;5036078;28;20563;-89
2021/10/13 00:47:07;;;;;;;4.50;2.30;;;4.50;87.80;;;;;;5036139;28;20645;-89
2021/10/13 00:49:33;;;;;;;5.43;2.70;;;4.50;87.50;;;;;;5035637;28;20178;-89
2021/10/13 00:52:03;;;;;;;4.10;2.50;;;4.50;87.50;;;;;;5053477;28;20169;-90
2021/10/13 00:54:30;;;;;;;3.53;2.57;;;4.40;87.30;;;;;;5052770;28;20201;-87
2021/10/13 00:56:56;;;;;;;4.40;2.27;;;4.40;87.30;;;;;;5035447;28;20188;-88
2021/10/13 00:59:21;;;;;;;3.13;2.40;;;4.50;87.10;;;;;;5035691;28;20174;-89
2021/10/13 01:01:56;;;;;;;144.67;6.67;;;4.40;87.00;;;;;;5035482;28;20196;-87
2021/10/13 01:05:01;;;;;;;202.60;10.50;;;4.30;87.40;;;;;;5053393;28;20196;-89
2021/10/13 01:07:30;;;;;;;282.70;11.20;;;4.30;88.20;;;;;;5039221;28;20193;-88
2021/10/13 01:10:13;;;;;;;352.73;13.60;;;4.30;89.00;;;;;;5035342;28;20195;-89
2021/10/13 01:13:09;;;;;;;456.27;17.37;;;4.30;89.40;;;;;;5035310;28;20191;-89
2021/10/13 01:15:53;;;;;;;526.30;20.50;;;4.30;89.80;;;;;;5035283;28;20189;-88
2021/10/13 01:18:30;;;;;;;585.67;22.43;;;4.30;89.90;;;;;;5053266;28;20162;-88
2021/10/13 01:21:19;;;;;;;615.97;31.07;;;4.30;90.30;;;;;;5053114;28;20161;-89
2021/10/13 01:24:09;;;;;;;176.47;7.27;;;4.40;90.60;;;;;;5042615;28;20229;-88
2021/10/13 01:27:06;;;;;;;3.00;2.50;;;4.50;90.70;;;;;;5035169;28;20247;-90
2021/10/13 01:29:36;;;;;;;428.20;15.30;;;4.50;90.40;;;;;;5052936;28;20177;-88
2021/10/13 01:32:06;;;;;;;64.07;4.17;;;4.40;90.10;;;;;;5035377;28;20253;-88
2021/10/13 01:34:39;;;;;;;357.97;16.67;;;4.40;90.00;;;;;;5053315;28;20189;-88
2021/10/13 01:37:13;;;;;;;238.83;12.47;;;4.50;89.90;;;;;;5052930;28;20166;-89
2021/10/13 01:39:43;;;;;;;211.07;8.53;;;4.50;90.00;;;;;;5035018;28;20177;-88
2021/10/13 01:42:11;;;;;;;300.17;14.80;;;4.50;89.90;;;;;;5035328;28;20262;-89
2021/10/13 01:44:38;;;;;;;277.53;10.83;;;4.50;89.90;;;;;;5035185;28;20686;-88
2021/10/13 01:47:06;;;;;;;410.73;19.93;;;4.40;89.90;;;;;;5035014;28;20173;-88
2021/10/13 01:49:36;;;;;;;286.30;16.27;;;4.40;89.80;;;;;;5034971;28;20180;-88
2021/10/13 01:52:03;;;;;;;512.87;20.27;;;4.30;89.70;;;;;;5034913;28;20178;-88
2021/10/13 01:54:30;;;;;;;489.23;23.07;;;4.30;89.60;;;;;;5076113;23;20798;-85
2021/10/13 01:56:58;;;;;;;496.10;20.07;;;4.30;89.50;;;;;;5052906;28;20209;-85
2021/10/13 01:59:28;;;;;;;363.63;14.60;;;4.20;89.70;;;;;;5052867;28;20576;-85
2021/10/13 02:01:54;;;;;;;113.17;6.87;;;4.20;90.10;;;;;;5035057;28;20178;-85
2021/10/13 02:04:21;;;;;;;154.90;7.93;;;4.30;90.50;;;;;;5053670;28;20702;-85
2021/10/13 02:06:49;;;;;;;209.33;11.67;;;4.30;90.70;;;;;;5056572;28;20173;-85
2021/10/13 02:09:17;;;;;;;164.17;8.43;;;4.40;90.90;;;;;;5056593;28;20169;-85
2021/10/13 02:11:44;;;;;;;365.00;17.80;;;4.50;90.90;;;;;;5056659;28;20169;-85
2021/10/13 02:14:12;;;;;;;5.57;3.67;;;4.50;91.00;;;;;;5038791;28;20200;-85
2021/10/13 02:16:42;;;;;;;6.07;5.10;;;4.50;91.20;;;;;;5038597;28;20220;-85
2021/10/13 02:19:11;;;;;;;6.30;4.30;;;4.70;91.50;;;;;;5038686;28;20263;-85
2021/10/13 02:21:38;;;;;;;8.47;4.50;;;4.80;91.60;;;;;;5056495;28;20541;-85
2021/10/13 02:24:06;;;;;;;6.13;5.40;;;4.80;91.60;;;;;;5056363;28;20190;-85
2021/10/13 02:27:01;;;;;;;5.50;4.37;;;4.80;91.80;;;;;;5056560;28;20181;-85
2021/10/13 02:29:27;;;;;;;7.50;5.20;;;4.80;91.80;;;;;;5054557;28;20660;-85
2021/10/13 02:31:53;;;;;;;6.23;4.83;;;4.80;91.80;;;;;;5038457;28;20180;-85
2021/10/13 02:34:18;;;;;;;5.87;5.10;;;4.80;91.90;;;;;;5056126;28;20196;-85
2021/10/13 02:36:44;;;;;;;8.57;5.17;;;4.90;92.00;;;;;;5056235;28;20238;-85
2021/10/13 02:39:10;;;;;;;76.67;8.17;;;4.80;91.90;;;;;;5056123;28;20232;-85
2021/10/13 02:41:36;;;;;;;333.13;17.37;;;4.80;91.80;;;;;;5055945;28;20241;-85
2021/10/13 02:44:07;;;;;;;202.17;12.03;;;4.60;91.70;;;;;;5056239;28;20654;-85
2021/10/13 02:46:49;;;;;;;173.60;9.87;;;4.60;91.90;;;;;;5055934;28;20188;-85
2021/10/13 02:49:36;;;;;;;194.10;10.67;;;4.60;92.00;;;;;;5038140;28;20180;-85
2021/10/13 02:52:17;;;;;;;291.90;15.20;;;4.60;92.00;;;;;;5038107;28;20279;-85
2021/10/13 02:54:55;;;;;;;182.40;10.53;;;4.60;92.00;;;;;;5056112;28;20250;-85
2021/10/13 02:57:23;;;;;;;171.47;11.63;;;4.60;92.00;;;;;;5056077;28;20173;-85
2021/10/13 02:59:51;;;;;;;69.93;7.13;;;4.60;92.10;;;;;;5055626;28;20172;-85
2021/10/13 03:02:25;;;;;;;400.77;19.87;;;4.70;92.30;;;;;;5037806;28;20184;-85
2021/10/13 03:04:58;;;;;;;438.37;22.50;;;4.60;92.30;;;;;;5037791;28;20239;-85
2021/10/13 03:07:31;;;;;;;574.67;26.27;;;4.50;92.30;;;;;;5055857;28;20170;-85
2021/10/13 03:10:00;;;;;;;332.30;20.70;;;4.50;92.40;;;;;;5055515;28;20166;-84
2021/10/13 03:12:39;;;;;;;162.93;9.13;;;4.60;92.50;;;;;;5055358;28;20233;-85
2021/10/13 03:15:08;;;;;;;81.00;6.23;;;4.60;92.50;;;;;;5055611;28;20216;-85
2021/10/13 03:17:35;;;;;;;208.83;12.83;;;4.60;92.40;;;;;;5036592;28;20174;-85
2021/10/13 03:20:02;;;;;;;254.90;14.40;;;4.60;92.30;;;;;;5037417;28;20180;-85
2021/10/13 03:22:28;;;;;;;275.50;12.40;;;4.50;92.20;;;;;;5055294;28;20179;-85
2021/10/13 03:24:54;;;;;;;354.37;18.50;;;4.60;92.40;;;;;;5037252;28;20564;-85
2021/10/13 03:27:25;;;;;;;132.10;10.00;;;4.50;92.50;;;;;;5037412;28;20169;-85
2021/10/13 03:29:51;;;;;;;151.20;7.80;;;4.50;92.60;;;;;;5038065;28;20184;-85
2021/10/13 03:32:17;;;;;;;159.30;9.03;;;4.50;92.60;;;;;;5055024;28;20650;-85
2021/10/13 03:34:42;;;;;;;186.00;10.57;;;4.50;92.60;;;;;;5036910;28;20199;-85
2021/10/13 03:37:08;;;;;;;258.77;10.00;;;4.50;92.70;;;;;;5037159;28;20176;-85
2021/10/13 03:39:34;;;;;;;340.03;13.13;;;4.40;92.60;;;;;;5055105;28;20172;-85
2021/10/13 03:42:01;;;;;;;195.57;7.43;;;4.30;92.60;;;;;;5054955;28;20200;-85
2021/10/13 03:44:27;;;;;;;283.37;13.97;;;4.30;92.60;;;;;;5036824;28;20232;-85
2021/10/13 03:46:53;;;;;;;358.07;15.17;;;4.30;92.60;;;;;;5036895;28;20182;-85
2021/10/13 03:49:18;;;;;;;2.37;2.23;;;4.30;92.60;;;;;;5036776;28;20649;-85
2021/10/13 03:51:44;;;;;;;442.03;16.43;;;4.30;92.50;;;;;;5054895;28;20635;-85
2021/10/13 03:54:10;;;;;;;172.37;7.43;;;4.30;92.30;;;;;;5036636;28;20264;-85
2021/10/13 03:56:35;;;;;;;280.93;11.00;;;4.40;92.30;;;;;;5036689;28;20202;-85
2021/10/13 03:59:01;;;;;;;90.90;4.80;;;4.30;92.20;;;;;;5054516;28;20681;-85
2021/10/13 04:01:27;;;;;;;7.23;2.20;;;4.30;92.20;;;;;;5054697;28;20197;-85
2021/10/13 04:03:52;;;;;;;14.20;2.50;;;4.40;92.10;;;;;;5054551;28;20676;-85
2021/10/13 04:06:18;;;;;;;1.90;1.80;;;4.30;92.00;;;;;;5054616;28;20186;-85
2021/10/13 04:08:44;;;;;;;2.00;1.90;;;4.30;91.80;;;;;;5054657;28;20277;-85
2021/10/13 04:11:09;;;;;;;1.93;1.83;;;4.30;91.70;;;;;;5036413;28;20218;-85
2021/10/13 04:13:36;;;;;;;90.23;4.27;;;4.30;91.50;;;;;;5054300;28;20206;-85
2021/10/13 04:16:02;;;;;;;77.77;6.17;;;4.30;91.50;;;;;;5036545;28;20206;-85
2021/10/13 04:18:27;;;;;;;59.57;3.53;;;4.20;91.30;;;;;;5054488;28;20170;-85
2021/10/13 04:20:53;;;;;;;1.90;1.80;;;4.20;91.20;;;;;;5054376;28;20182;-85
2021/10/13 04:23:19;;;;;;;20.37;2.63;;;4.20;91.20;;;;;;5036369;28;20557;-85
2021/10/13 04:25:45;;;;;;;23.90;3.97;;;4.20;91.00;;;;;;5054061;28;20178;-85
2021/10/13 04:28:10;;;;;;;3.33;2.70;;;4.20;91.10;;;;;;5054172;28;20174;-85
2021/10/13 04:30:37;;;;;;;2.70;2.40;;;4.30;91.10;;;;;;5054176;28;20264;-85
2021/10/13 04:33:04;;;;;;;2.30;2.20;;;4.20;91.00;;;;;;5036250;28;20182;-85
2021/10/13 04:35:30;;;;;;;2.70;2.50;;;4.20;90.80;;;;;;5053899;28;20208;-85
2021/10/13 04:37:56;;;;;;;2.80;2.00;;;4.20;90.70;;;;;;5053858;28;20261;-85
2021/10/13 04:40:21;;;;;;;97.07;7.33;;;4.20;90.50;;;;;;5035980;28;20268;-85
2021/10/13 04:42:47;;;;;;;51.63;3.00;;;4.10;90.20;;;;;;5036770;28;20621;-85
2021/10/13 04:45:13;;;;;;;34.10;2.60;;;4.00;90.30;;;;;;5053608;28;20288;-85
2021/10/13 04:47:39;;;;;;;64.33;5.60;;;4.00;90.30;;;;;;5053641;28;20179;-85
2021/10/13 04:50:05;;;;;;;286.00;12.50;;;4.00;90.20;;;;;;5053688;28;20259;-85
2021/10/13 04:52:31;;;;;;;1.80;1.70;;;3.80;89.90;;;;;;5035794;28;20258;-85
2021/10/13 04:54:56;;;;;;;1.67;1.57;;;3.90;90.10;;;;;;5053226;28;20247;-85
2021/10/13 04:57:23;;;;;;;1.57;1.47;;;3.90;89.90;;;;;;5053787;28;20206;-85
2021/10/13 04:59:50;;;;;;;1.80;1.70;;;3.90;89.70;;;;;;5053492;28;20173;-85
2021/10/13 05:02:16;;;;;;;2.10;1.50;;;3.90;89.50;;;;;;5035560;28;20181;-85
2021/10/13 05:04:42;;;;;;;2.77;1.80;;;3.90;89.30;;;;;;5053398;28;20223;-85
2021/10/13 05:07:07;;;;;;;100.77;4.67;;;3.80;89.10;;;;;;5053460;28;20183;-85
2021/10/13 05:09:33;;;;;;;37.60;2.60;;;3.80;89.00;;;;;;5053373;28;20644;-85
2021/10/13 05:11:58;;;;;;;86.80;3.97;;;3.70;89.00;;;;;;5053354;28;20255;-85
2021/10/13 05:14:24;;;;;;;141.20;6.17;;;3.70;89.10;;;;;;5035361;28;20614;-85
2021/10/13 05:16:50;;;;;;;217.80;7.27;;;3.70;89.00;;;;;;5053363;28;20263;-85
2021/10/13 05:19:15;;;;;;;215.00;8.10;;;3.60;88.90;;;;;;5053229;28;20177;-85
2021/10/13 05:21:41;;;;;;;10.87;1.73;;;3.50;89.10;;;;;;5035345;28;20176;-85
2021/10/13 05:24:08;;;;;;;49.90;2.87;;;3.50;89.30;;;;;;5053172;28;20214;-85
2021/10/13 05:26:34;;;;;;;1.80;1.70;;;3.50;89.20;;;;;;5053186;28;20173;-85
2021/10/13 05:29:00;;;;;;;1.60;1.50;;;3.50;89.00;;;;;;5035236;28;20185;-85
2021/10/13 05:31:26;;;;;;;22.73;2.10;;;3.50;88.80;;;;;;5053354;28;20570;-85
2021/10/13 05:33:51;;;;;;;221.03;9.30;;;3.50;88.70;;;;;;5053165;28;20207;-85
2021/10/13 05:36:17;;;;;;;74.13;3.57;;;3.40;88.60;;;;;;5052962;28;20300;-85
2021/10/13 05:38:43;;;;;;;8.27;1.77;;;3.30;89.10;;;;;;5052968;28;20172;-84
2021/10/13 05:41:08;;;;;;;1.60;1.50;;;3.40;89.40;;;;;;5057443;28;20172;-85
2021/10/13 05:43:34;;;;;;;1.80;1.70;;;3.40;89.30;;;;;;5039290;28;20619;-85
2021/10/13 05:46:00;;;;;;;2.53;2.10;;;3.40;89.10;;;;;;5057077;28;20187;-85
2021/10/13 05:48:25;;;;;;;2.47;1.80;;;3.40;88.80;;;;;;5057011;28;20221;-85
2021/10/13 05:50:52;;;;;;;2.30;2.10;;;3.40;88.60;;;;;;5039117;28;20215;-85
2021/10/13 05:53:18;;;;;;;2.60;2.20;;;3.40;88.50;;;;;;5056746;28;20169;-85
2021/10/13 05:55:44;;;;;;;2.03;1.83;;;3.40;88.30;;;;;;5038888;28;20207;-85
2021/10/13 05:58:10;;;;;;;2.77;2.40;;;3.30;88.30;;;;;;5057056;28;20648;-85
2021/10/13 06:00:36;;;;;;;3.07;2.10;;;3.40;88.20;;;;;;5057055;28;20165;-85
2021/10/13 06:03:01;;;;;;;2.93;2.17;;;3.40;88.30;;;;;;5056757;28;20164;-85
2021/10/13 06:05:27;;;;;;;2.70;2.50;;;3.40;88.50;;;;;;5038752;28;20210;-85
2021/10/13 06:07:53;;;;;;;3.10;2.80;;;3.40;88.50;;;;;;5038769;28;20640;-85
2021/10/13 06:10:20;;;;;;;2.47;2.27;;;3.40;88.50;;;;;;5056912;28;20644;-85
2021/10/13 06:12:45;;;;;;;2.60;2.40;;;3.40;88.50;;;;;;5056666;28;20175;-85
2021/10/13 06:15:11;;;;;;;9.70;2.70;;;3.40;88.60;;;;;;5056421;28;20556;-86
2021/10/13 06:17:37;;;;;;;10.10;2.67;;;3.40;88.60;;;;;;5056490;28;20587;-85
2021/10/13 06:20:04;;;;;;;3.47;2.20;;;3.40;89.10;;;;;;5056252;28;20168;-85
2021/10/13 06:22:29;;;;;;;3.43;3.07;;;3.30;89.50;;;;;;5056880;28;20251;-85
2021/10/13 06:24:56;;;;;;;7.93;3.53;;;3.30;90.10;;;;;;5056356;28;20226;-85
2021/10/13 06:27:23;;;;;;;3.70;3.40;;;3.60;90.70;;;;;;5038332;28;20285;-85
2021/10/13 06:29:49;;;;;;;3.50;3.20;;;3.60;90.90;;;;;;5038233;28;20644;-85
2021/10/13 06:32:14;;;;;;;3.80;3.40;;;3.80;91.10;;;;;;5038362;28;20183;-85
2021/10/13 06:34:40;;;;;;;4.90;4.40;;;3.80;91.30;;;;;;5038202;28;20199;-85
2021/10/13 06:37:06;;;;;;;6.10;4.67;;;4.00;91.90;;;;;;5056080;28;20741;-85
2021/10/13 06:39:31;;;;;;;8.27;4.50;;;4.10;92.10;;;;;;5038175;28;20177;-85
2021/10/13 06:41:57;;;;;;;5.23;4.77;;;4.30;92.30;;;;;;5056000;28;20176;-85
2021/10/13 06:44:23;;;;;;;6.43;4.77;;;4.30;92.50;;;;;;5056041;28;20592;-85
2021/10/13 06:46:50;;;;;;;6.20;5.60;;;4.40;92.70;;;;;;5055922;28;20172;-85
2021/10/13 06:49:17;;;;;;;6.67;5.47;;;4.50;92.80;;;;;;5055846;28;20656;-85
2021/10/13 06:51:43;;;;;;;7.93;6.30;;;4.60;92.90;;;;;;5054579;28;20172;-85
2021/10/13 06:54:09;;;;;;;7.50;6.43;;;4.70;93.00;;;;;;5055791;28;20284;-85
2021/10/13 06:56:36;;;;;;;8.87;6.47;;;4.80;93.10;;;;;;5055656;28;20269;-85
2021/10/13 06:59:02;;;;;;;11.93;7.70;;;4.80;93.10;;;;;;5055692;28;20179;-86
2021/10/13 07:01:27;;;;;;;11.10;7.80;;;5.00;93.30;;;;;;5037683;28;20181;-86
2021/10/13 07:03:53;;;;;;;11.63;7.30;;;5.20;93.40;;;;;;5037596;28;20292;-86
2021/10/13 07:06:18;;;;;;;10.00;7.40;;;5.20;93.40;;;;;;5055852;28;20583;-86
2021/10/13 07:08:44;;;;;;;7.70;6.90;;;5.20;93.40;;;;;;5037572;28;20212;-86
2021/10/13 07:11:10;;;;;;;9.70;6.60;;;5.30;93.50;;;;;;5055332;28;20181;-86
2021/10/13 07:13:36;;;;;;;12.87;7.13;;;5.30;93.50;;;;;;5055296;28;20226;-86
2021/10/13 07:16:02;;;;;;;12.07;7.20;;;5.50;93.60;;;;;;5055194;28;20287;-86
2021/10/13 07:18:28;;;;;;;12.43;7.67;;;5.50;93.60;;;;;;5055420;28;20230;-86
2021/10/13 07:20:53;;;;;;;12.43;7.67;;;5.60;93.70;;;;;;5055212;28;20304;-86
2021/10/13 07:23:19;;;;;;;10.10;7.23;;;5.70;93.70;;;;;;5037192;28;20179;-86
2021/10/13 07:25:45;;;;;;;21.70;7.57;;;5.80;93.80;;;;;;5055360;28;20289;-86
2021/10/13 07:28:12;;;;;;;17.93;9.53;;;5.80;93.80;;;;;;5037158;28;20178;-86
2021/10/13 07:30:38;;;;;;;21.30;8.90;;;6.20;94.10;;;;;;5037054;28;20273;-86
2021/10/13 07:33:07;;;;;;;12.30;7.87;;;6.50;94.30;;;;;;5054905;28;20208;-86
2021/10/13 07:35:34;;;;;;;10.33;6.13;;;6.80;94.40;;;;;;5054759;28;20203;-86
2021/10/13 07:38:00;;;;;;;7.73;4.80;;;7.10;94.50;;;;;;5054852;28;20225;-85
2021/10/13 07:40:25;;;;;;;8.63;6.27;;;7.40;94.50;;;;;;5055127;28;20171;-86
2021/10/13 07:42:51;;;;;;;14.20;6.60;;;7.60;94.40;;;;;;5054811;28;20543;-86
2021/10/13 07:45:20;;;;;;;10.27;6.67;;;7.50;94.10;;;;;;5036745;28;20311;-85
2021/10/13 07:47:46;;;;;;;8.67;6.43;;;7.60;94.10;;;;;;5036816;28;20200;-86
2021/10/13 07:50:13;;;;;;;17.00;7.57;;;7.70;94.10;;;;;;5054615;28;20172;-86
2021/10/13 07:52:38;;;;;;;8.17;6.03;;;7.60;93.90;;;;;;5054863;28;20640;-85
2021/10/13 07:55:06;;;;;;;12.47;7.07;;;7.70;94.00;;;;;;5054711;28;20215;-85
2021/10/13 07:57:31;;;;;;;11.30;6.67;;;7.90;94.00;;;;;;5036708;28;20554;-86
2021/10/13 07:59:57;;;;;;;9.97;6.13;;;8.00;94.10;;;;;;5036581;28;20176;-86
2021/10/13 08:02:23;;;;;;;11.27;6.27;;;8.00;94.00;;;;;;5054316;28;20179;-86
2021/10/13 08:04:48;;;;;;;14.37;5.70;;;8.00;93.70;;;;;;5054276;28;20184;-86
2021/10/13 08:07:16;;;;;;;13.07;6.03;;;8.00;93.40;;;;;;5054293;28;20168;-85
2021/10/13 08:09:42;;;;;;;15.97;5.83;;;8.10;93.20;;;;;;5054562;28;20175;-86
2021/10/13 08:12:08;;;;;;;11.70;6.10;;;8.40;93.40;;;;;;5054219;28;20183;-85
2021/10/13 08:14:34;;;;;;;12.33;6.20;;;8.30;93.00;;;;;;5054131;28;20188;-85
2021/10/13 08:17:01;;;;;;;9.20;5.87;;;8.50;93.20;;;;;;5054024;28;20194;-86
2021/10/13 08:19:27;;;;;;;8.33;5.50;;;8.50;93.10;;;;;;5054494;28;20595;-85
2021/10/13 08:21:52;;;;;;;9.70;5.20;;;8.40;92.90;;;;;;5054272;28;20243;-86
2021/10/13 08:24:18;;;;;;;11.20;4.97;;;8.40;92.80;;;;;;5054346;28;20608;-85
2021/10/13 08:26:44;;;;;;;13.97;6.10;;;8.40;92.50;;;;;;5036116;28;20668;-86
2021/10/13 08:29:10;;;;;;;11.53;6.00;;;8.40;92.40;;;;;;5035994;28;20561;-86
2021/10/13 08:31:35;;;;;;;13.07;6.10;;;8.50;92.50;;;;;;5035991;28;20180;-85
2021/10/13 08:34:01;;;;;;;9.70;5.50;;;8.50;92.60;;;;;;5053737;28;20196;-86
2021/10/13 08:36:27;;;;;;;7.40;5.50;;;8.60;92.60;;;;;;5053673;28;20258;-86
2021/10/13 08:38:53;;;;;;;9.90;6.43;;;8.60;92.70;;;;;;5035925;28;20243;-86
2021/10/13 08:41:18;;;;;;;11.60;5.17;;;8.70;92.80;;;;;;5035783;28;20203;-86
2021/10/13 08:43:45;;;;;;;10.90;5.23;;;8.70;92.80;;;;;;5035749;28;20203;-85
2021/10/13 08:46:11;;;;;;;11.57;5.17;;;8.80;92.80;;;;;;5035802;28;20176;-86
2021/10/13 08:48:38;;;;;;;8.20;4.40;;;8.90;92.70;;;;;;5035740;28;20267;-86
2021/10/13 08:51:04;;;;;;;6.27;4.07;;;9.00;92.60;;;;;;5035730;28;20225;-85
2021/10/13 08:53:29;;;;;;;11.67;4.60;;;9.00;91.90;;;;;;5053300;28;20172;-86
2021/10/13 08:55:56;;;;;;;6.00;4.03;;;9.10;91.80;;;;;;5035594;28;20188;-86
2021/10/13 08:58:24;;;;;;;6.03;4.00;;;9.10;91.70;;;;;;5035519;28;20176;-86
2021/10/13 09:01:09;;;;;;;4.30;3.27;;;9.20;91.50;;;;;;5035533;28;20179;-86
2021/10/13 09:03:39;;;;;;;7.20;4.30;;;9.20;91.60;;;;;;5035416;28;20164;-86
2021/10/13 09:06:24;;;;;;;7.73;4.07;;;9.20;91.50;;;;;;5053299;28;20156;-86
2021/10/13 09:09:10;;;;;;;8.63;4.00;;;9.20;91.70;;;;;;5035384;28;20555;-86
2021/10/13 09:12:02;;;;;;;4.57;3.43;;;9.20;91.50;;;;;;5035522;28;20616;-86
2021/10/13 09:14:29;;;;;;;10.07;4.17;;;9.30;91.40;;;;;;5032125;28;20214;-85
2021/10/13 09:16:55;;;;;;;9.60;4.00;;;9.30;91.30;;;;;;5053321;28;20188;-86
2021/10/13 09:19:23;;;;;;;8.03;4.07;;;9.60;91.80;;;;;;5053176;28;20169;-87
2021/10/13 09:22:00;;;;;;;9.10;4.20;;;9.60;91.10;;;;;;5053159;28;20165;-86
2021/10/13 09:24:30;;;;;;;6.20;3.73;;;9.80;91.50;;;;;;5035262;28;20686;-86
2021/10/13 09:27:16;;;;;;;10.53;4.10;;;9.80;91.40;;;;;;5035238;28;20259;-86
2021/10/13 09:29:43;;;;;;;9.73;4.17;;;9.80;91.00;;;;;;5035178;28;20175;-87
2021/10/13 09:32:08;;;;;;;10.67;3.60;;;9.80;91.10;;;;;;5035161;28;20176;-86
2021/10/13 09:34:34;;;;;;;10.57;4.30;;;10.00;91.20;;;;;;5053050;28;20320;-86
2021/10/13 09:37:01;;;;;;;8.67;3.37;;;10.00;91.10;;;;;;5035105;28;20231;-87
2021/10/13 09:39:29;;;;;;;11.10;3.40;;;10.00;90.60;;;;;;5035652;28;20176;-87
2021/10/13 09:42:12;;;;;;;10.43;4.20;;;10.10;90.70;;;;;;5052933;28;20530;-86
2021/10/13 09:44:40;;;;;;;6.17;3.23;;;10.30;91.30;;;;;;5035085;28;20341;-86
2021/10/13 09:47:12;;;;;;;5.10;3.63;;;10.20;90.20;;;;;;5053046;28;20639;-86
2021/10/13 09:49:49;;;;;;;15.33;3.20;;;10.30;90.50;;;;;;5053153;28;20179;-85
2021/10/13 09:52:17;;;;;;;7.50;3.23;;;10.30;89.90;;;;;;5052670;28;20646;-86
2021/10/13 09:54:46;;;;;;;12.27;3.70;;;10.30;89.50;;;;;;5034984;28;20318;-86
2021/10/13 09:57:26;;;;;;;7.67;3.53;;;10.40;90.00;;;;;;5034875;28;20199;-86
2021/10/13 10:00:06;;;;;;;12.50;3.57;;;10.70;90.40;;;;;;5034968;28;20175;-86
2021/10/13 10:02:53;;;;;;;8.63;3.00;;;11.00;89.80;;;;;;5053002;28;20148;-88
2021/10/13 10:05:25;;;;;;;9.73;2.87;;;11.00;89.10;;;;;;5034825;28;20196;-87
2021/10/13 10:08:00;;;;;;;8.13;3.20;;;11.10;88.60;;;;;;5052665;28;20651;-87
2021/10/13 10:10:26;;;;;;;7.37;2.80;;;11.40;89.00;;;;;;5052584;28;20205;-87
2021/10/13 10:13:11;;;;;;;7.07;2.53;;;11.60;89.00;;;;;;5052571;28;20639;-87
2021/10/13 10:15:40;;;;;;;6.03;2.40;;;11.70;87.60;;;;;;5052125;28;20200;-87
2021/10/13 10:18:32;;;;;;;8.93;2.73;;;11.70;88.10;;;;;;5052598;28;20195;-88
2021/10/13 10:21:21;;;;;;;8.13;2.50;;;11.70;87.30;;;;;;5034768;28;20172;-87
2021/10/13 10:23:52;;;;;;;6.33;2.60;;;11.60;86.70;;;;;;5034637;28;20196;-87
2021/10/13 10:26:28;;;;;;;12.27;2.23;;;11.70;87.70;;;;;;5036848;28;20176;-87
2021/10/13 10:28:57;;;;;;;9.33;2.67;;;11.70;85.70;;;;;;5056185;28;20222;-87
2021/10/13 10:31:33;;;;;;;9.73;3.00;;;11.70;86.30;;;;;;5056109;28;20699;-88
2021/10/13 10:34:28;;;;;;;7.57;2.30;;;12.00;86.00;;;;;;5038074;28;20199;-87
2021/10/13 10:36:54;;;;;;;8.57;2.30;;;12.30;86.20;;;;;;5025361;28;20630;-87
2021/10/13 10:39:20;;;;;;;8.40;3.33;;;12.20;84.30;;;;;;5038152;28;20176;-86
2021/10/13 10:41:52;;;;;;;12.80;1.93;;;12.10;84.80;;;;;;5055977;28;20199;-86
2021/10/13 10:44:44;;;;;;;6.77;1.83;;;12.00;84.30;;;;;;5055866;28;20191;-87
2021/10/13 10:47:18;;;;;;;7.20;2.37;;;12.00;83.40;;;;;;5056263;28;20157;-86
2021/10/13 10:49:47;;;;;;;10.10;2.43;;;12.10;85.00;;;;;;5055975;28;20504;-86
2021/10/13 10:52:17;;;;;;;8.37;2.30;;;12.10;84.10;;;;;;5037887;28;20183;-86
2021/10/13 10:55:00;;;;;;;7.67;2.60;;;12.10;83.40;;;;;;5037608;28;20219;-87
2021/10/13 10:57:39;;;;;;;9.20;2.20;;;12.10;84.70;;;;;;5038052;28;20180;-87
2021/10/13 11:00:29;;;;;;;8.83;2.50;;;12.20;82.90;;;;;;5055639;28;20168;-87
2021/10/13 11:03:21;;;;;;;7.20;1.93;;;12.40;84.10;;;;;;5037657;28;20172;-87
2021/10/13 11:05:48;;;;;;;7.37;2.77;;;12.90;83.50;;;;;;5037839;28;20180;-87
2021/10/13 11:08:15;;;;;;;10.93;1.90;;;12.90;81.90;;;;;;5037773;28;20176;-87
2021/10/13 11:10:42;;;;;;;6.03;1.70;;;13.10;82.00;;;;;;5037432;28;20180;-87
2021/10/13 11:13:08;;;;;;;8.93;1.80;;;13.10;77.30;;;;;;5037381;28;20660;-87
2021/10/13 11:15:38;;;;;;;6.83;1.90;;;13.40;78.10;;;;;;5055157;28;20569;-88
2021/10/13 11:18:18;;;;;;;3.37;1.57;;;13.70;79.10;;;;;;5055601;28;20256;-87
2021/10/13 11:20:45;;;;;;;7.97;2.43;;;13.50;75.50;;;;;;5055580;28;20194;-87
2021/10/13 11:23:12;;;;;;;10.33;1.90;;;13.30;78.30;;;;;;5037704;28;20264;-87
2021/10/13 11:25:39;;;;;;;4.47;1.50;;;13.60;77.60;;;;;;5037372;28;20230;-87
2021/10/13 11:28:14;;;;;;;9.03;2.07;;;13.90;76.60;;;;;;5037250;28;20182;-87
2021/10/13 11:30:49;;;;;;;6.10;1.50;;;13.80;73.70;;;;;;5055126;28;20180;-87
2021/10/13 11:33:17;;;;;;;4.87;1.50;;;13.80;74.50;;;;;;5037155;28;20175;-87
2021/10/13 11:35:44;;;;;;;5.07;1.50;;;13.80;73.00;;;;;;5054868;28;20220;-87
2021/10/13 11:38:20;;;;;;;7.03;1.63;;;13.40;71.90;;;;;;5054366;28;20542;-87
2021/10/13 11:40:47;;;;;;;6.50;1.60;;;13.30;71.80;;;;;;5037137;28;20198;-87
2021/10/13 11:43:17;;;;;;;8.40;1.20;;;13.20;74.10;;;;;;5054790;28;20671;-87
2021/10/13 11:45:52;;;;;;;4.90;1.63;;;13.40;75.40;;;;;;5054788;28;20148;-87
2021/10/13 11:48:26;;;;;;;3.37;1.30;;;13.10;71.80;;;;;;5036869;28;20616;-87
2021/10/13 11:50:53;;;;;;;4.17;1.47;;;12.90;72.20;;;;;;5055378;28;20160;-88
2021/10/13 11:53:19;;;;;;;8.97;2.03;;;12.70;73.70;;;;;;5036815;28;20176;-87
2021/10/13 11:55:45;;;;;;;9.33;1.70;;;12.80;75.60;;;;;;5054805;28;20188;-88
2021/10/13 11:58:28;;;;;;;5.80;1.80;;;12.60;77.10;;;;;;5036640;28;20664;-88
2021/10/13 12:00:54;;;;;;;7.13;1.77;;;12.20;78.20;;;;;;5036610;28;20171;-87
2021/10/13 12:03:28;;;;;;;4.90;1.53;;;12.30;79.30;;;;;;5036844;28;20180;-87
2021/10/13 12:05:58;;;;;;;4.93;1.73;;;12.30;79.70;;;;;;5036695;28;20249;-87
2021/10/13 12:08:29;;;;;;;9.80;1.90;;;12.30;80.60;;;;;;5036616;28;20663;-87
2021/10/13 12:11:04;;;;;;;4.93;1.80;;;12.10;81.10;;;;;;5036476;28;20544;-87
2021/10/13 12:13:31;;;;;;;9.43;1.90;;;11.80;81.80;;;;;;5036210;28;20171;-88
2021/10/13 12:15:59;;;;;;;6.63;2.00;;;11.80;83.00;;;;;;5036281;28;20202;-87
2021/10/13 12:18:30;;;;;;;3.20;1.90;;;11.60;83.60;;;;;;5054132;28;20644;-87
2021/10/13 12:21:02;;;;;;;7.53;2.30;;;11.70;84.80;;;;;;5054057;28;20153;-87
2021/10/13 12:23:30;;;;;;;9.97;2.63;;;11.60;85.20;;;;;;5036293;28;20265;-87
2021/10/13 12:25:56;;;;;;;11.57;2.40;;;11.50;86.10;;;;;;5053959;28;20214;-87
2021/10/13 12:28:26;;;;;;;7.47;2.43;;;11.40;85.20;;;;;;5053978;28;20180;-87
2021/10/13 12:31:05;;;;;;;6.13;2.27;;;11.50;86.20;;;;;;5053935;28;20176;-87
2021/10/13 12:33:45;;;;;;;11.70;2.73;;;11.70;86.20;;;;;;5035943;28;20654;-87
2021/10/13 12:36:22;;;;;;;4.43;2.23;;;11.90;85.20;;;;;;5036010;28;20663;-88
2021/10/13 12:39:01;;;;;;;9.27;2.20;;;12.20;85.40;;;;;;5049984;28;20183;-87
2021/10/13 12:41:36;;;;;;;11.27;2.17;;;12.40;83.50;;;;;;5054559;28;20156;-87
2021/10/13 12:44:15;;;;;;;5.63;2.40;;;12.60;82.20;;;;;;5036003;28;20191;-86
2021/10/13 12:46:57;;;;;;;8.73;2.20;;;12.60;82.40;;;;;;5053615;28;20187;-86
2021/10/13 12:49:24;;;;;;;5.90;2.07;;;12.60;82.70;;;;;;5034931;28;20187;-86
2021/10/13 12:52:03;;;;;;;8.23;1.87;;;12.60;79.90;;;;;;5054159;28;20703;-86
2021/10/13 12:54:31;;;;;;;4.77;1.87;;;12.80;78.40;;;;;;5053348;28;20294;-87
2021/10/13 12:56:58;;;;;;;6.73;1.63;;;12.90;78.20;;;;;;5053640;28;20671;-86